Time,TemperatureF,DewpointF,PressureIn,WindDirection,WindDirectionDegrees,WindSpeedMPH,WindSpeedGustMPH,Humidity,HourlyPrecipIn,Conditions,Clouds,dailyrainin,SolarRadiationWatts/m^2,SoftwareType,DateUTC
2013-08-05 08:33:00,65.0,41.0,-100.00,ENE,74,7.0,9.0,42,-99.99,,,0.00,201.000000,,2013-08-05 15:33:00,
2013-08-05 08:44:00,65.0,41.0,-100.00,ENE,74,7.0,9.0,42,-99.99,,,0.00,201.000000,,2013-08-05 15:44:00,
2013-08-05 09:23:00,69.0,42.0,-100.00,NE,37,2.0,8.0,38,0.00,,,0.00,408.000000,,2013-08-05 16:23:00,
2013-08-05 09:33:00,69.0,42.0,-100.00,NE,37,2.0,8.0,38,0.00,,,0.00,408.000000,,2013-08-05 16:33:00,
2013-08-05 09:43:00,69.0,42.0,-100.00,NE,37,2.0,8.0,38,0.00,,,0.00,408.000000,,2013-08-05 16:43:00,
2013-08-05 10:22:00,67.0,45.0,-100.00,WSW,253,3.0,5.0,45,0.00,,,0.00,604.000000,,2013-08-05 17:22:00,
2013-08-05 10:44:00,67.0,45.0,-100.00,WSW,253,3.0,5.0,45,0.00,,,0.00,604.000000,,2013-08-05 17:44:00,
2013-08-05 11:13:00,70.0,48.0,-100.00,West,262,9.0,11.0,46,0.00,,,-99.99,772.000000,,2013-08-05 18:13:00,
2013-08-05 11:23:00,70.0,48.0,-100.00,West,262,9.0,11.0,46,0.00,,,-99.99,772.000000,,2013-08-05 18:23:00,
2013-08-05 11:33:00,70.0,48.0,-100.00,West,262,9.0,11.0,46,0.00,,,-99.99,772.000000,,2013-08-05 18:33:00,
2013-08-05 11:44:00,70.0,48.0,-100.00,West,262,9.0,11.0,46,0.00,,,-99.99,772.000000,,2013-08-05 18:44:00,
2013-08-05 12:14:00,73.0,54.0,-100.00,West,278,9.0,15.0,52,0.00,,,0.00,897.000000,,2013-08-05 19:14:00,
2013-08-05 12:24:00,73.0,54.0,-100.00,West,278,9.0,15.0,52,0.00,,,0.00,897.000000,,2013-08-05 19:24:00,
2013-08-05 12:33:00,73.0,54.0,-100.00,West,278,9.0,15.0,52,0.00,,,0.00,897.000000,,2013-08-05 19:33:00,
2013-08-05 12:46:00,73.0,54.0,-100.00,West,278,9.0,15.0,52,0.00,,,0.00,897.000000,,2013-08-05 19:46:00,
2013-08-05 13:15:00,78.0,49.0,-100.00,WNW,287,10.0,18.0,36,0.00,,,0.00,964.000000,,2013-08-05 20:15:00,
2013-08-05 13:24:00,78.0,49.0,-100.00,WNW,287,10.0,18.0,36,0.00,,,0.00,964.000000,,2013-08-05 20:24:00,
2013-08-05 13:34:00,78.0,49.0,-100.00,WNW,287,10.0,18.0,36,0.00,,,0.00,964.000000,,2013-08-05 20:34:00,
2013-08-05 14:15:00,81.0,48.0,-100.00,West,278,13.0,20.0,32,0.00,,,0.00,976.000000,,2013-08-05 21:15:00,
2013-08-05 14:33:00,81.0,48.0,-100.00,West,278,13.0,20.0,32,0.00,,,0.00,976.000000,,2013-08-05 21:33:00,
2013-08-05 14:44:00,81.0,48.0,-100.00,West,278,13.0,20.0,32,0.00,,,0.00,976.000000,,2013-08-05 21:44:00,
2013-08-05 15:13:00,79.0,47.0,-100.00,WNW,284,15.0,21.0,33,0.00,,,0.00,928.000000,,2013-08-05 22:13:00,
2013-08-05 15:24:00,79.0,47.0,-100.00,WNW,284,15.0,21.0,33,0.00,,,0.00,928.000000,,2013-08-05 22:24:00,
2013-08-05 15:34:00,79.0,47.0,-100.00,WNW,284,15.0,21.0,33,0.00,,,0.00,928.000000,,2013-08-05 22:34:00,
2013-08-05 15:43:00,79.0,47.0,-100.00,WNW,284,15.0,21.0,33,0.00,,,0.00,928.000000,,2013-08-05 22:43:00,
2013-08-05 16:24:00,79.0,48.0,-100.00,West,278,16.0,22.0,34,0.00,,,0.00,825.000000,,2013-08-05 23:24:00,
2013-08-05 16:33:00,79.0,48.0,-100.00,West,278,16.0,22.0,34,0.00,,,0.00,825.000000,,2013-08-05 23:33:00,
2013-08-05 16:43:00,79.0,48.0,-100.00,West,278,16.0,22.0,34,0.00,,,0.00,825.000000,,2013-08-05 23:43:00,
2013-08-05 17:15:00,78.0,50.0,-100.00,WNW,282,14.0,20.0,37,0.00,,,0.00,676.000000,,2013-08-06 00:15:00,
2013-08-05 17:24:00,78.0,50.0,-100.00,WNW,282,14.0,20.0,37,0.00,,,0.00,676.000000,,2013-08-06 00:24:00,
2013-08-05 17:34:00,78.0,50.0,-100.00,WNW,282,14.0,20.0,37,0.00,,,0.00,676.000000,,2013-08-06 00:34:00,
2013-08-05 18:14:00,76.0,50.0,-100.00,West,281,12.0,20.0,40,0.00,,,0.00,491.000000,,2013-08-06 01:14:00,
2013-08-05 18:24:00,76.0,50.0,-100.00,West,281,12.0,20.0,40,0.00,,,0.00,491.000000,,2013-08-06 01:24:00,
2013-08-05 18:45:00,76.0,50.0,-100.00,West,281,12.0,20.0,40,0.00,,,0.00,491.000000,,2013-08-06 01:45:00,
2013-08-05 19:14:00,73.0,49.0,-100.00,West,278,9.0,15.0,43,0.00,,,0.00,285.000000,,2013-08-06 02:14:00,
2013-08-05 19:24:00,73.0,49.0,-100.00,West,278,9.0,15.0,43,0.00,,,0.00,285.000000,,2013-08-06 02:24:00,
2013-08-05 19:32:00,73.0,49.0,-100.00,West,278,9.0,15.0,43,0.00,,,0.00,285.000000,,2013-08-06 02:32:00,
2013-08-05 19:43:00,73.0,49.0,-100.00,West,278,9.0,15.0,43,0.00,,,0.00,285.000000,,2013-08-06 02:43:00,
2013-08-05 20:24:00,67.0,50.0,-100.00,WSW,254,6.0,11.0,54,0.00,,,0.00,86.000000,,2013-08-06 03:24:00,
2013-08-05 20:34:00,67.0,50.0,-100.00,WSW,254,6.0,11.0,54,0.00,,,0.00,86.000000,,2013-08-06 03:34:00,
2013-08-05 20:45:00,67.0,50.0,-100.00,WSW,254,6.0,11.0,54,0.00,,,0.00,86.000000,,2013-08-06 03:45:00,
2013-08-05 21:22:00,67.0,48.0,-100.00,SW,225,6.0,8.0,51,0.00,,,0.00,2.000000,,2013-08-06 04:22:00,
2013-08-05 21:33:00,67.0,48.0,-100.00,SW,225,6.0,8.0,51,0.00,,,0.00,2.000000,,2013-08-06 04:33:00,
2013-08-05 21:44:00,67.0,48.0,-100.00,SW,225,6.0,8.0,51,0.00,,,0.00,2.000000,,2013-08-06 04:44:00,
2013-08-05 22:11:00,66.0,49.0,-100.00,WSW,237,9.0,11.0,54,0.00,,,0.00,0.000000,,2013-08-06 05:11:00,
2013-08-05 22:22:00,66.0,49.0,-100.00,WSW,237,9.0,11.0,54,0.00,,,0.00,0.000000,,2013-08-06 05:22:00,
2013-08-05 22:32:00,66.0,49.0,-100.00,WSW,237,9.0,11.0,54,0.00,,,0.00,0.000000,,2013-08-06 05:32:00,
2013-08-05 22:43:00,66.0,49.0,-100.00,WSW,237,9.0,11.0,54,0.00,,,0.00,0.000000,,2013-08-06 05:43:00,